createdAt,value
2024-02-15T00:00:01.105Z,7.97
2024-02-15T00:02:32.236Z,9.45
2024-02-15T00:04:59.368Z,8.82
2024-02-15T00:07:27.514Z,8.65
2024-02-15T00:09:57.293Z,10.35
2024-02-15T00:12:24.299Z,7.90
2024-02-15T00:14:51.764Z,8.50
2024-02-15T00:17:19.367Z,8.75
2024-02-15T00:19:47.988Z,9.05
2024-02-15T00:22:15.257Z,8.93
2024-02-15T00:24:43.913Z,9.80
2024-02-15T00:27:12.383Z,9.13
2024-02-15T00:29:41.632Z,8.70
2024-02-15T00:32:09.382Z,8.30
2024-02-15T00:34:37.432Z,8.23
2024-02-15T00:37:05.792Z,8.55
2024-02-15T00:39:33.141Z,8.52
2024-02-15T00:42:01.614Z,8.95
2024-02-15T00:44:29.103Z,9.32
2024-02-15T00:46:57.229Z,9.45
2024-02-15T00:49:24.722Z,8.43
2024-02-15T00:51:51.939Z,8.93
2024-02-15T00:54:18.980Z,8.35
2024-02-15T00:56:46.178Z,8.70
2024-02-15T00:59:13.216Z,9.02
2024-02-15T01:01:40.295Z,9.05
2024-02-15T01:04:07.469Z,9.25
2024-02-15T01:06:34.886Z,8.77
2024-02-15T01:09:04.950Z,9.25
2024-02-15T01:11:36.947Z,9.85
2024-02-15T01:14:04.646Z,8.43
2024-02-15T01:16:31.941Z,8.40
2024-02-15T01:18:59.372Z,8.43
2024-02-15T01:21:26.960Z,7.85
2024-02-15T01:23:55.129Z,9.23
2024-02-15T01:26:22.377Z,8.88
2024-02-15T01:28:49.622Z,8.93
2024-02-15T01:31:18.611Z,8.63
2024-02-15T01:33:49.467Z,8.05
2024-02-15T01:36:17.837Z,8.90
2024-02-15T01:38:46.135Z,8.65
2024-02-15T01:41:13.406Z,9.20
2024-02-15T01:43:45.994Z,9.63
2024-02-15T01:46:13.389Z,9.63
2024-02-15T01:48:41.959Z,9.38
2024-02-15T01:51:11.454Z,9.63
2024-02-15T01:53:39.971Z,8.77
2024-02-15T01:56:08.248Z,8.60
2024-02-15T01:58:37.344Z,9.68
2024-02-15T02:01:06.452Z,9.32
2024-02-15T02:03:33.672Z,9.25
2024-02-15T02:06:01.991Z,10.30
2024-02-15T02:08:29.237Z,9.50
2024-02-15T02:10:56.297Z,8.68
2024-02-15T02:13:23.555Z,9.43
2024-02-15T02:15:50.916Z,9.32
2024-02-15T02:18:18.107Z,8.68
2024-02-15T02:20:46.894Z,9.38
2024-02-15T02:23:21.298Z,9.32
2024-02-15T02:25:50.324Z,8.75
2024-02-15T02:28:20.191Z,8.68
2024-02-15T02:30:47.755Z,8.38
2024-02-15T02:33:23.375Z,9.75
2024-02-15T02:35:50.785Z,9.55
2024-02-15T02:38:17.993Z,8.82
2024-02-15T02:40:45.214Z,9.45
2024-02-15T02:43:12.254Z,9.05
2024-02-15T02:45:39.606Z,9.95
2024-02-15T02:48:06.974Z,9.63
2024-02-15T02:50:34.417Z,10.15
2024-02-15T02:53:01.590Z,10.32
2024-02-15T02:55:29.148Z,10.38
2024-02-15T02:57:56.639Z,8.95
2024-02-15T03:00:24.315Z,11.15
2024-02-15T03:02:51.607Z,10.55
2024-02-15T03:05:22.368Z,9.85
2024-02-15T03:07:52.806Z,9.40
2024-02-15T03:10:20.318Z,9.88
2024-02-15T03:12:50.249Z,10.52
2024-02-15T03:15:19.452Z,11.18
2024-02-15T03:17:49.408Z,9.23
2024-02-15T03:20:23.509Z,9.55
2024-02-15T03:22:54.662Z,11.48
2024-02-15T03:25:25.198Z,10.82
2024-02-15T03:27:57.127Z,10.02
2024-02-15T03:30:26.616Z,10.93
2024-02-15T03:32:54.617Z,11.02
2024-02-15T03:35:24.392Z,11.23
2024-02-15T03:37:52.297Z,11.10
2024-02-15T03:40:24.248Z,12.25
2024-02-15T03:42:51.727Z,12.40
2024-02-15T03:45:19.026Z,11.25
2024-02-15T03:47:47.769Z,10.90
2024-02-15T03:50:16.373Z,10.23
2024-02-15T03:52:45.037Z,10.68
2024-02-15T03:55:12.212Z,11.57
2024-02-15T03:57:44.943Z,9.27
2024-02-15T04:00:14.971Z,10.70
2024-02-15T04:02:42.862Z,12.27
2024-02-15T04:05:13.780Z,11.38
2024-02-15T04:07:41.256Z,8.98
2024-02-15T04:10:09.766Z,9.85
2024-02-15T04:12:50.117Z,11.35
2024-02-15T04:15:19.103Z,11.32
2024-02-15T04:17:47.226Z,11.98
2024-02-15T04:20:16.596Z,12.10
2024-02-15T04:22:44.895Z,11.73
2024-02-15T04:25:17.695Z,11.17
2024-02-15T04:27:48.044Z,11.57
2024-02-15T04:30:17.255Z,11.32
2024-02-15T04:32:44.874Z,10.30
2024-02-15T04:35:14.789Z,11.50
2024-02-15T04:37:43.153Z,9.98
2024-02-15T04:40:12.117Z,10.30
2024-02-15T04:42:42.063Z,10.85
2024-02-15T04:45:11.860Z,9.38
2024-02-15T04:47:53.799Z,10.45
2024-02-15T04:50:22.248Z,10.38
2024-02-15T04:52:51.167Z,10.33
2024-02-15T04:55:19.209Z,10.88
2024-02-15T04:57:48.613Z,11.18
2024-02-15T05:02:45.823Z,10.73
2024-02-15T05:05:14.768Z,9.75
2024-02-15T05:07:44.533Z,11.63
2024-02-15T05:10:11.983Z,11.48
2024-02-15T05:12:41.501Z,10.75
2024-02-15T05:15:12.715Z,11.40
2024-02-15T05:17:44.544Z,9.95
2024-02-15T05:20:13.429Z,11.32
2024-02-15T05:22:43.930Z,11.35
2024-02-15T05:25:13.777Z,10.85
2024-02-15T05:27:40.956Z,10.68
2024-02-15T05:30:08.632Z,10.40
2024-02-15T05:32:43.078Z,11.70
2024-02-15T05:35:14.055Z,10.77
2024-02-15T05:37:41.174Z,11.40
2024-02-15T05:40:08.776Z,9.98
2024-02-15T05:42:36.176Z,11.52
2024-02-15T05:45:30.803Z,10.95
2024-02-15T05:47:58.049Z,11.35
2024-02-15T05:50:25.730Z,11.43
2024-02-15T05:52:54.285Z,12.25
2024-02-15T05:55:21.438Z,10.80
2024-02-15T05:57:48.550Z,9.05
2024-02-15T06:00:22.715Z,10.32
2024-02-15T06:02:51.925Z,10.18
2024-02-15T06:05:21.345Z,11.68
2024-02-15T06:07:49.002Z,10.95
2024-02-15T06:10:16.909Z,11.88
2024-02-15T06:12:44.405Z,10.55
2024-02-15T06:15:17.116Z,10.93
2024-02-15T06:17:45.802Z,10.65
2024-02-15T06:20:15.373Z,10.23
2024-02-15T06:22:43.433Z,10.30
2024-02-15T06:25:11.708Z,10.80
2024-02-15T06:27:42.024Z,10.60
2024-02-15T06:30:29.878Z,10.38
2024-02-15T06:33:15.508Z,11.73
2024-02-15T06:36:01.978Z,11.48
2024-02-15T06:38:47.747Z,10.50
2024-02-15T06:41:15.108Z,10.70
2024-02-15T06:43:42.673Z,10.93
2024-02-15T06:46:11.958Z,11.80
2024-02-15T06:48:39.440Z,10.52
2024-02-15T06:51:07.432Z,10.77
2024-02-15T06:53:34.783Z,10.18
2024-02-15T06:56:03.811Z,10.93
2024-02-15T06:58:31.198Z,10.15
2024-02-15T07:00:58.230Z,12.07
2024-02-15T07:03:25.443Z,12.02
2024-02-15T07:05:52.571Z,11.80
2024-02-15T07:08:19.767Z,11.48
2024-02-15T07:10:46.950Z,12.20
2024-02-15T07:13:13.933Z,11.07
2024-02-15T07:15:41.227Z,11.60
2024-02-15T07:18:08.679Z,10.35
2024-02-15T07:20:35.972Z,8.45
2024-02-15T07:23:03.217Z,11.18
2024-02-15T07:25:30.413Z,10.95
2024-02-15T07:27:57.870Z,11.57
2024-02-15T07:30:26.406Z,11.50
2024-02-15T07:32:53.900Z,10.02
2024-02-15T07:35:21.302Z,11.63
2024-02-15T07:38:00.030Z,10.15
2024-02-15T07:40:29.818Z,11.57
2024-02-15T07:43:00.201Z,10.60
2024-02-15T07:45:27.457Z,10.07
2024-02-15T07:47:54.903Z,9.85
2024-02-15T07:50:24.255Z,10.52
2024-02-15T07:55:19.536Z,10.88
2024-02-15T07:57:49.605Z,10.07
2024-02-15T08:00:17.890Z,10.98
2024-02-15T08:02:45.658Z,11.10
2024-02-15T08:05:15.276Z,10.07
2024-02-15T08:07:45.435Z,9.77
2024-02-15T08:10:16.673Z,10.60
2024-02-15T08:12:44.904Z,9.75
2024-02-15T08:15:15.995Z,9.90
2024-02-15T08:17:44.587Z,10.35
2024-02-15T08:20:12.616Z,10.47
2024-02-15T08:22:40.524Z,7.55
2024-02-15T08:25:11.484Z,10.65
2024-02-15T08:27:46.643Z,9.75
2024-02-15T08:30:15.009Z,11.02
2024-02-15T08:32:43.710Z,9.98
2024-02-15T08:35:12.493Z,10.63
2024-02-15T08:37:41.112Z,10.13
2024-02-15T08:40:14.753Z,9.73
2024-02-15T08:42:43.133Z,9.85
2024-02-15T08:45:11.854Z,9.57
2024-02-15T08:47:43.623Z,9.10
2024-02-15T08:50:13.003Z,9.82
2024-02-15T08:52:41.558Z,9.38
2024-02-15T08:55:10.810Z,9.38
2024-02-15T08:57:41.725Z,9.75
2024-02-15T09:00:15.109Z,8.98
2024-02-15T09:02:46.665Z,9.52
2024-02-15T09:05:18.620Z,9.20
2024-02-15T09:07:51.470Z,8.98
2024-02-15T09:10:19.039Z,9.38
2024-02-15T09:12:50.521Z,11.15
2024-02-15T09:15:18.942Z,9.90
2024-02-15T09:17:47.696Z,9.25
2024-02-15T09:20:21.813Z,10.43
2024-02-15T09:22:51.071Z,10.18
2024-02-15T09:25:19.531Z,8.95
2024-02-15T09:27:47.175Z,9.50
2024-02-15T09:30:15.219Z,8.50
2024-02-15T09:32:43.786Z,8.70
2024-02-15T09:35:15.647Z,8.75
2024-02-15T09:37:51.365Z,8.02
2024-02-15T09:40:21.013Z,8.15
2024-02-15T09:42:49.492Z,8.50
2024-02-15T09:45:18.676Z,8.23
2024-02-15T09:47:46.634Z,9.07
2024-02-15T09:50:17.216Z,9.20
2024-02-15T09:52:52.752Z,7.85
2024-02-15T09:55:21.201Z,7.50
2024-02-15T09:57:48.643Z,7.78
2024-02-15T10:00:18.797Z,8.50
2024-02-15T10:02:49.037Z,8.75
2024-02-15T10:05:18.618Z,8.02
2024-02-15T10:07:46.927Z,7.65
2024-02-15T10:10:18.364Z,9.52
2024-02-15T10:12:49.333Z,8.70
2024-02-15T10:15:41.895Z,7.78
2024-02-15T10:18:12.554Z,8.80
2024-02-15T10:20:41.832Z,8.38
2024-02-15T10:23:12.725Z,8.07
2024-02-15T10:25:42.131Z,8.80
2024-02-15T10:30:46.993Z,7.72
2024-02-15T10:33:25.517Z,8.00
2024-02-15T10:36:15.703Z,8.20
2024-02-15T10:38:43.480Z,8.00
2024-02-15T10:41:12.488Z,7.68
2024-02-15T10:43:44.772Z,7.57
2024-02-15T10:46:14.224Z,7.47
2024-02-15T10:48:41.664Z,7.55
2024-02-15T10:51:12.186Z,7.45
2024-02-15T10:53:51.829Z,6.63
2024-02-15T10:59:15.102Z,6.90
2024-02-15T11:01:45.175Z,7.50
2024-02-15T11:04:16.723Z,8.05
2024-02-15T11:06:45.766Z,7.82
2024-02-15T11:09:14.760Z,7.00
2024-02-15T11:11:43.075Z,7.07
2024-02-15T11:14:30.558Z,7.13
2024-02-15T11:16:59.148Z,7.05
2024-02-15T11:19:38.596Z,7.10
2024-02-15T11:22:15.736Z,6.80
2024-02-15T11:24:54.151Z,6.50
2024-02-15T11:27:31.386Z,7.00
2024-02-15T11:30:05.729Z,6.55
2024-02-15T11:32:57.595Z,6.35
2024-02-15T11:35:26.577Z,6.20
2024-02-15T11:38:05.518Z,5.57
2024-02-15T11:40:45.488Z,6.65
2024-02-15T11:43:51.466Z,6.57
2024-02-15T11:46:20.870Z,7.00
2024-02-15T11:48:49.585Z,6.75
2024-02-15T11:51:30.044Z,6.07
2024-02-15T11:54:08.062Z,7.38
2024-02-15T11:57:11.837Z,6.45
2024-02-15T12:00:15.689Z,6.40
2024-02-15T12:03:01.350Z,6.70
2024-02-15T12:05:46.965Z,6.68
2024-02-15T12:08:32.977Z,6.57
2024-02-15T12:11:19.819Z,8.60
2024-02-15T12:14:47.093Z,6.40
2024-02-15T12:17:56.516Z,6.88
2024-02-15T12:20:26.653Z,7.15
2024-02-15T12:22:54.560Z,6.57
2024-02-15T12:25:25.772Z,6.80
2024-02-15T12:28:01.008Z,7.10
2024-02-15T12:30:34.860Z,7.22
2024-02-15T12:33:13.096Z,6.65
2024-02-15T12:35:40.398Z,7.53
2024-02-15T12:38:09.739Z,7.65
2024-02-15T12:43:13.389Z,7.22
2024-02-15T12:45:42.486Z,6.97
2024-02-15T12:48:11.967Z,6.82
2024-02-15T12:50:41.235Z,6.60
2024-02-15T12:53:09.588Z,6.38
2024-02-15T12:55:39.461Z,6.50
2024-02-15T12:58:16.535Z,6.85
2024-02-15T13:00:45.072Z,6.70
2024-02-15T13:03:15.171Z,6.75
2024-02-15T13:05:42.781Z,6.88
2024-02-15T13:08:15.577Z,7.32
2024-02-15T13:10:43.441Z,6.55
2024-02-15T13:13:11.378Z,6.10
2024-02-15T13:15:39.870Z,6.30
2024-02-15T13:18:11.243Z,6.15
2024-02-15T13:20:39.408Z,7.68
2024-02-15T13:23:15.651Z,6.30
2024-02-15T13:25:44.646Z,6.28
2024-02-15T13:28:14.716Z,6.78
2024-02-15T13:30:46.285Z,6.40
2024-02-15T13:33:15.039Z,6.35
2024-02-15T13:35:42.708Z,7.55
2024-02-15T13:38:16.306Z,6.93
2024-02-15T13:40:46.182Z,5.75
2024-02-15T13:43:13.694Z,6.35
2024-02-15T13:45:42.108Z,6.07
2024-02-15T13:48:10.690Z,5.90
2024-02-15T13:50:40.482Z,6.57
2024-02-15T13:53:10.696Z,6.15
2024-02-15T13:55:38.715Z,5.68
2024-02-15T13:58:05.899Z,6.28
2024-02-15T14:00:35.870Z,6.75
2024-02-15T14:03:07.517Z,6.38
2024-02-15T14:05:35.256Z,6.70
2024-02-15T14:08:04.500Z,6.50
2024-02-15T14:10:36.720Z,6.15
2024-02-15T14:13:13.040Z,6.40
2024-02-15T14:15:41.110Z,7.60
2024-02-15T14:18:15.709Z,9.30
2024-02-15T14:20:44.593Z,8.07
2024-02-15T14:23:15.535Z,8.30
2024-02-15T14:25:43.764Z,6.88
2024-02-15T14:28:11.064Z,6.63
2024-02-15T14:30:58.743Z,6.47
2024-02-15T14:33:33.117Z,5.82
2024-02-15T14:36:02.041Z,7.45
2024-02-15T14:38:30.253Z,8.05
2024-02-15T14:40:59.584Z,6.60
2024-02-15T14:43:28.583Z,6.18
2024-02-15T14:45:58.233Z,6.88
2024-02-15T14:48:26.964Z,6.70
2024-02-15T14:50:57.337Z,7.32
2024-02-15T14:53:25.440Z,6.35
2024-02-15T14:55:53.858Z,6.90
2024-02-15T14:58:23.942Z,8.20
2024-02-15T15:00:51.539Z,7.03
2024-02-15T15:03:19.083Z,6.95
2024-02-15T15:06:05.441Z,7.43
2024-02-15T15:08:52.107Z,7.88
2024-02-15T15:11:38.604Z,7.40
2024-02-15T15:14:07.081Z,8.35
2024-02-15T15:16:35.505Z,7.50
2024-02-15T15:19:04.477Z,7.45
2024-02-15T15:21:50.760Z,7.78
2024-02-15T15:24:17.929Z,7.90
2024-02-15T15:26:45.198Z,7.43
2024-02-15T15:29:12.867Z,7.25
2024-02-15T15:31:40.140Z,7.43
2024-02-15T15:34:08.302Z,8.10
2024-02-15T15:36:35.901Z,6.13
2024-02-15T15:39:09.856Z,7.15
2024-02-15T15:41:38.847Z,6.38
2024-02-15T15:44:06.176Z,7.28
2024-02-15T15:46:34.670Z,8.05
2024-02-15T15:49:02.391Z,7.60
2024-02-15T15:51:29.586Z,7.45
2024-02-15T15:53:56.789Z,7.13
2024-02-15T15:56:23.871Z,6.72
2024-02-15T15:58:54.478Z,5.93
2024-02-15T16:01:22.156Z,5.68
2024-02-15T16:03:50.992Z,5.28
2024-02-15T16:06:18.577Z,5.38
2024-02-15T16:08:47.322Z,5.93
2024-02-15T16:11:17.981Z,5.20
2024-02-15T16:13:47.718Z,5.53
2024-02-15T16:16:15.524Z,5.50
2024-02-15T16:18:43.524Z,6.55
2024-02-15T16:21:10.766Z,5.90
2024-02-15T16:23:37.875Z,5.50
2024-02-15T16:26:07.252Z,5.15
2024-02-15T16:28:34.575Z,6.20
2024-02-15T16:31:02.997Z,6.28
2024-02-15T16:33:30.328Z,6.18
2024-02-15T16:35:57.787Z,5.85
2024-02-15T16:38:24.885Z,6.10
2024-02-15T16:40:51.968Z,6.55
2024-02-15T16:43:19.256Z,6.43
2024-02-15T16:45:47.610Z,7.20
2024-02-15T16:48:14.801Z,5.72
2024-02-15T16:50:43.126Z,6.25
2024-02-15T16:53:10.438Z,6.85
2024-02-15T16:55:37.496Z,7.22
2024-02-15T16:58:09.506Z,7.10
2024-02-15T17:00:39.687Z,7.75
2024-02-15T17:03:07.230Z,7.50
2024-02-15T17:05:36.982Z,6.63
2024-02-15T17:08:07.648Z,8.55
2024-02-15T17:10:36.781Z,9.73
2024-02-15T17:13:05.531Z,7.53
2024-02-15T17:15:33.024Z,9.35
2024-02-15T17:18:00.333Z,11.43
2024-02-15T17:20:28.067Z,12.32
2024-02-15T17:22:55.196Z,9.60
2024-02-15T17:25:26.649Z,10.48
2024-02-15T17:27:56.819Z,10.20
2024-02-15T17:30:25.021Z,10.07
2024-02-15T17:32:53.563Z,14.65
2024-02-15T17:35:22.574Z,10.17
2024-02-15T17:37:50.506Z,9.38
2024-02-15T17:40:18.939Z,8.38
2024-02-15T17:42:46.215Z,8.63
2024-02-15T17:45:14.730Z,9.57
2024-02-15T17:47:45.752Z,10.48
2024-02-15T17:50:19.323Z,8.90
2024-02-15T17:52:47.152Z,10.25
2024-02-15T17:55:16.314Z,10.35
2024-02-15T17:57:47.618Z,10.70
2024-02-15T18:00:21.234Z,9.82
2024-02-15T18:02:50.556Z,10.55
2024-02-15T18:05:21.465Z,9.35
2024-02-15T18:07:52.097Z,8.35
2024-02-15T18:10:22.962Z,9.05
2024-02-15T18:12:50.633Z,10.05
2024-02-15T18:15:30.534Z,9.45
2024-02-15T18:17:58.699Z,9.57
2024-02-15T18:20:27.344Z,9.60
2024-02-15T18:22:55.175Z,8.60
2024-02-15T18:25:22.459Z,8.13
2024-02-15T18:27:49.755Z,8.57
2024-02-15T18:30:20.047Z,9.25
2024-02-15T18:32:49.044Z,9.25
2024-02-15T18:35:17.887Z,8.65
2024-02-15T18:37:47.794Z,11.95
2024-02-15T18:40:22.591Z,12.10
2024-02-15T18:42:55.880Z,13.88
2024-02-15T18:45:23.302Z,16.45
2024-02-15T18:47:51.697Z,12.48
2024-02-15T18:50:21.591Z,13.60
2024-02-15T18:52:49.392Z,14.18
2024-02-15T18:55:16.989Z,17.08
2024-02-15T18:57:45.433Z,21.58
2024-02-15T19:00:23.582Z,14.60
2024-02-15T19:03:00.530Z,27.40
2024-02-15T19:05:29.353Z,19.80
2024-02-15T19:07:56.757Z,21.30
2024-02-15T19:10:24.257Z,14.35
2024-02-15T19:12:54.969Z,12.82
2024-02-15T19:15:24.435Z,18.52
2024-02-15T19:17:52.565Z,15.27
2024-02-15T19:20:20.050Z,13.35
2024-02-15T19:22:47.563Z,11.93
2024-02-15T19:25:22.138Z,13.20
2024-02-15T19:27:50.005Z,12.30
2024-02-15T19:30:19.865Z,11.63
2024-02-15T19:32:50.373Z,11.13
2024-02-15T19:35:19.908Z,11.65
2024-02-15T19:37:48.008Z,12.05
2024-02-15T19:40:19.068Z,11.73
2024-02-15T19:42:48.731Z,11.77
2024-02-15T19:45:20.029Z,10.77
2024-02-15T19:47:52.938Z,10.88
2024-02-15T19:50:24.549Z,14.40
2024-02-15T19:52:51.812Z,15.90
2024-02-15T19:55:18.900Z,15.60
2024-02-15T19:57:45.950Z,14.35
2024-02-15T20:00:15.238Z,11.10
2024-02-15T20:02:45.110Z,11.55
2024-02-15T20:05:13.348Z,12.02
2024-02-15T20:07:41.036Z,11.63
2024-02-15T20:10:09.239Z,10.13
2024-02-15T20:12:37.711Z,10.13
2024-02-15T20:15:09.468Z,11.43
2024-02-15T20:17:37.933Z,10.88
2024-02-15T20:20:09.873Z,10.25
2024-02-15T20:22:40.216Z,10.05
2024-02-15T20:25:10.814Z,10.25
2024-02-15T20:27:38.575Z,10.75
2024-02-15T20:30:06.592Z,11.52
2024-02-15T20:32:33.825Z,11.45
2024-02-15T20:35:01.060Z,14.98
2024-02-15T20:37:28.215Z,12.38
2024-02-15T20:39:55.223Z,13.88
2024-02-15T20:42:22.865Z,11.65
2024-02-15T20:44:50.378Z,13.75
2024-02-15T20:47:20.214Z,13.63
2024-02-15T20:49:47.810Z,13.45
2024-02-15T20:52:15.026Z,13.18
2024-02-15T20:54:42.380Z,14.43
2024-02-15T20:57:16.186Z,15.18
2024-02-15T20:59:43.829Z,14.40
2024-02-15T21:02:11.439Z,17.42
2024-02-15T21:04:39.148Z,16.88
2024-02-15T21:07:06.879Z,17.92
2024-02-15T21:09:34.226Z,21.48
2024-02-15T21:12:01.421Z,29.80
2024-02-15T21:14:28.508Z,21.83
2024-02-15T21:16:55.652Z,25.02
2024-02-15T21:19:22.740Z,21.30
2024-02-15T21:21:49.924Z,20.05
2024-02-15T21:24:17.086Z,19.55
2024-02-15T21:26:45.285Z,20.05
2024-02-15T21:29:16.693Z,18.92
2024-02-15T21:31:52.096Z,17.70
2024-02-15T21:34:19.581Z,19.48
2024-02-15T21:36:46.976Z,18.90
2024-02-15T21:39:14.281Z,20.83
2024-02-15T21:41:41.381Z,19.55
2024-02-15T21:44:12.284Z,21.35
2024-02-15T21:46:40.950Z,19.83
2024-02-15T21:49:08.322Z,19.85
2024-02-15T21:51:35.480Z,20.42
2024-02-15T21:54:02.661Z,20.40
2024-02-15T21:56:29.913Z,20.23
2024-02-15T21:58:56.929Z,19.83
2024-02-15T22:01:23.909Z,20.73
2024-02-15T22:03:52.061Z,20.90
2024-02-15T22:06:19.246Z,18.55
2024-02-15T22:08:46.828Z,20.00
2024-02-15T22:11:13.857Z,19.75
2024-02-15T22:13:43.718Z,19.75
2024-02-15T22:16:11.384Z,20.10
2024-02-15T22:18:38.725Z,19.48
2024-02-15T22:21:06.306Z,19.13
2024-02-15T22:23:33.364Z,19.63
2024-02-15T22:26:00.350Z,20.60
2024-02-15T22:28:27.571Z,18.05
2024-02-15T22:30:54.693Z,19.55
2024-02-15T22:33:24.957Z,19.25
2024-02-15T22:35:52.310Z,18.08
2024-02-15T22:38:19.776Z,18.88
2024-02-15T22:40:46.979Z,18.25
2024-02-15T22:43:14.243Z,17.50
2024-02-15T22:45:41.312Z,18.95
2024-02-15T22:48:08.599Z,18.17
2024-02-15T22:50:35.786Z,17.40
2024-02-15T22:53:03.612Z,17.67
2024-02-15T22:55:30.946Z,18.30
2024-02-15T22:57:59.157Z,17.80
2024-02-15T23:00:27.443Z,18.58
2024-02-15T23:02:54.840Z,21.27
2024-02-15T23:05:23.440Z,19.50
2024-02-15T23:07:51.664Z,19.73
2024-02-15T23:10:18.975Z,19.80
2024-02-15T23:12:46.057Z,19.33
2024-02-15T23:15:16.232Z,18.48
2024-02-15T23:17:43.742Z,19.25
2024-02-15T23:20:13.212Z,19.42
2024-02-15T23:22:43.046Z,19.58
2024-02-15T23:25:10.510Z,18.83
2024-02-15T23:27:37.554Z,17.55
2024-02-15T23:30:06.021Z,18.77
2024-02-15T23:32:36.123Z,19.73
2024-02-15T23:35:04.761Z,18.92
2024-02-15T23:37:50.302Z,17.88
2024-02-15T23:40:20.662Z,21.17
2024-02-15T23:42:47.688Z,20.05
2024-02-15T23:45:14.844Z,19.55
2024-02-15T23:47:42.148Z,17.40
2024-02-15T23:50:16.900Z,18.58
2024-02-15T23:52:47.053Z,17.95
2024-02-15T23:55:15.976Z,17.75
2024-02-15T23:57:44.590Z,17.60
